createdAt,value
2019-02-15T15:55:07.166Z,101578.00
2019-02-15T15:57:35.564Z,101585.00
2019-02-15T16:00:03.960Z,101578.00
2019-02-15T16:02:32.434Z,101570.00
2019-02-15T16:05:00.597Z,101569.00
2019-02-15T16:07:28.864Z,101579.00
2019-02-15T16:09:57.133Z,101580.00
2019-02-15T16:12:25.983Z,101574.00
2019-02-15T16:14:54.506Z,101581.00
2019-02-15T16:17:27.859Z,101578.00
2019-02-15T16:19:56.409Z,101588.00
2019-02-15T16:22:26.056Z,101576.00
2019-02-15T16:24:54.604Z,101584.00
2019-02-15T16:27:22.937Z,101583.00
2019-02-15T16:29:51.532Z,101582.00
2019-02-15T16:32:19.826Z,101586.00
2019-02-15T16:34:50.244Z,101581.00
2019-02-15T16:37:18.645Z,101596.00
2019-02-15T16:39:46.801Z,101602.00
2019-02-15T16:42:14.989Z,101597.00
2019-02-15T16:44:43.223Z,101605.00
2019-02-15T16:47:11.447Z,101598.00
2019-02-15T16:49:39.638Z,101594.00
2019-02-15T16:52:08.149Z,101593.00
2019-02-15T16:54:36.665Z,101595.00
2019-02-15T16:57:04.961Z,101594.00
2019-02-15T16:59:33.857Z,101591.00
2019-02-15T17:02:02.951Z,101587.00
2019-02-15T17:04:31.326Z,101597.00
2019-02-15T17:06:59.579Z,101584.00
2019-02-15T17:09:27.862Z,101588.00
2019-02-15T17:11:56.778Z,101585.00
2019-02-15T17:14:25.217Z,101584.00
2019-02-15T17:16:53.482Z,101587.00
2019-02-15T17:19:21.803Z,101588.00
2019-02-15T17:21:50.191Z,101588.00
2019-02-15T17:24:18.473Z,101581.00
2019-02-15T17:26:46.714Z,101586.00
2019-02-15T17:29:15.008Z,101585.00
2019-02-15T17:31:44.010Z,101588.00
2019-02-15T17:34:12.635Z,101589.00
2019-02-15T17:36:40.859Z,101581.00
2019-02-15T17:39:09.573Z,101579.00
2019-02-15T17:41:37.814Z,101586.00
2019-02-15T17:44:06.084Z,101587.00
2019-02-15T17:46:35.001Z,101582.00
2019-02-15T17:49:03.443Z,101572.00
2019-02-15T17:51:31.775Z,101571.00
2019-02-15T17:54:00.043Z,101575.00
2019-02-15T17:56:28.385Z,101575.00
2019-02-15T17:58:56.623Z,101576.00
2019-02-15T18:01:24.912Z,101574.00
2019-02-15T18:03:53.225Z,101572.00
2019-02-15T18:06:21.494Z,101579.00
2019-02-15T18:08:49.742Z,101580.00
2019-02-15T18:11:17.877Z,101589.00
2019-02-15T18:13:46.171Z,101590.00
2019-02-15T18:16:14.473Z,101585.00
2019-02-15T18:18:42.788Z,101576.00
2019-02-15T18:21:11.055Z,101570.00
2019-02-15T18:23:39.254Z,101574.00
2019-02-15T18:26:07.542Z,101574.00
2019-02-15T18:28:35.815Z,101581.00
2019-02-15T18:31:03.961Z,101576.00
2019-02-15T18:33:32.180Z,101577.00
2019-02-15T18:36:00.356Z,101588.00
2019-02-15T18:38:28.544Z,101589.00
2019-02-15T18:40:56.766Z,101580.00
2019-02-15T18:43:25.062Z,101578.00
2019-02-15T18:45:53.256Z,101578.00
2019-02-15T18:48:21.631Z,101582.00
2019-02-15T18:50:49.945Z,101579.00
2019-02-15T18:53:18.188Z,101579.00
2019-02-15T18:55:46.522Z,101588.00
2019-02-15T18:58:14.888Z,101587.00
2019-02-15T19:00:43.110Z,101585.00
2019-02-15T19:03:11.402Z,101591.00
2019-02-15T19:05:39.565Z,101589.00
2019-02-15T19:08:07.954Z,101589.00
2019-02-15T19:10:36.211Z,101580.00
2019-02-15T19:13:04.636Z,101581.00
2019-02-15T19:15:32.792Z,101579.00
2019-02-15T19:18:01.427Z,101582.00
2019-02-15T19:20:29.676Z,101588.00
2019-02-15T19:22:58.009Z,101592.00
2019-02-15T19:27:57.567Z,101582.00
2019-02-15T19:30:26.762Z,101573.00
2019-02-15T19:32:54.967Z,101563.00
2019-02-15T19:35:23.478Z,101562.00
2019-02-15T19:37:51.645Z,101560.00
2019-02-15T19:40:19.850Z,101563.00
2019-02-15T19:42:50.562Z,101557.00
2019-02-15T19:45:19.201Z,101570.00
2019-02-15T19:47:47.428Z,101562.00
2019-02-15T19:50:16.606Z,101567.00
2019-02-15T19:52:46.488Z,101561.00
2019-02-15T19:55:14.679Z,101564.00
2019-02-15T19:57:42.861Z,101552.00
2019-02-15T20:00:14.631Z,101545.00
2019-02-15T20:02:42.836Z,101553.00
2019-02-15T20:05:11.045Z,101549.00
2019-02-15T20:07:39.899Z,101553.00
2019-02-15T20:10:12.090Z,101555.00
2019-02-15T20:12:40.314Z,101551.00
2019-02-15T20:15:10.842Z,101555.00
2019-02-15T20:17:39.827Z,101557.00
2019-02-15T20:20:10.249Z,101552.00
2019-02-15T20:22:38.722Z,101556.00
2019-02-15T20:25:08.612Z,101552.00
2019-02-15T20:27:36.819Z,101550.00
2019-02-15T20:30:08.929Z,101551.00
2019-02-15T20:32:37.089Z,101559.00
2019-02-15T20:35:06.703Z,101552.00
2019-02-15T20:37:34.988Z,101556.00
2019-02-15T20:40:03.684Z,101549.00
2019-02-15T20:42:32.831Z,101547.00
2019-02-15T20:45:01.324Z,101553.00
2019-02-15T20:47:29.567Z,101547.00
2019-02-15T20:49:58.399Z,101552.00
2019-02-15T20:52:26.608Z,101549.00
2019-02-15T20:54:55.314Z,101546.00
2019-02-15T20:57:23.496Z,101542.00
2019-02-15T20:59:51.733Z,101540.00
2019-02-15T21:02:20.444Z,101535.00
2019-02-15T21:04:48.886Z,101537.00
2019-02-15T21:07:17.087Z,101536.00
2019-02-15T21:09:45.316Z,101529.00
2019-02-15T21:12:13.455Z,101523.00
2019-02-15T21:14:41.730Z,101525.00
2019-02-15T21:17:10.155Z,101517.00
2019-02-15T21:19:38.402Z,101521.00
2019-02-15T21:22:06.566Z,101522.00
2019-02-15T21:24:34.754Z,101524.00
2019-02-15T21:27:02.950Z,101520.00
2019-02-15T21:29:31.182Z,101524.00
2019-02-15T21:31:59.334Z,101524.00
2019-02-15T21:34:27.520Z,101521.00
2019-02-15T21:36:55.849Z,101518.00
2019-02-15T21:39:24.102Z,101522.00
2019-02-15T21:41:52.648Z,101520.00
2019-02-15T21:44:20.977Z,101525.00
2019-02-15T21:46:49.347Z,101528.00
2019-02-15T21:49:17.979Z,101526.00
2019-02-15T21:51:46.592Z,101526.00
2019-02-15T21:54:15.155Z,101522.00
2019-02-15T21:56:43.586Z,101520.00
2019-02-15T21:59:11.840Z,101522.00
2019-02-15T22:01:40.312Z,101529.00
2019-02-15T22:04:08.649Z,101528.00
2019-02-15T22:06:37.019Z,101534.00
2019-02-15T22:09:06.193Z,101539.00
2019-02-15T22:11:34.327Z,101539.00
2019-02-15T22:14:02.569Z,101536.00
2019-02-15T22:16:30.841Z,101533.00
2019-02-15T22:18:59.310Z,101533.00
2019-02-15T22:21:27.594Z,101533.00
2019-02-15T22:23:56.330Z,101523.00
2019-02-15T22:26:24.733Z,101530.00
2019-02-15T22:28:53.091Z,101529.00
2019-02-15T22:31:21.285Z,101522.00
2019-02-15T22:33:49.497Z,101522.00
2019-02-15T22:36:17.660Z,101521.00
2019-02-15T22:38:45.874Z,101522.00
2019-02-15T22:41:16.170Z,101516.00
2019-02-15T22:43:45.323Z,101521.00
2019-02-15T22:46:13.495Z,101517.00
2019-02-15T22:48:41.633Z,101522.00
2019-02-15T22:51:09.908Z,101528.00
2019-02-15T22:53:38.187Z,101526.00
2019-02-15T22:56:06.532Z,101518.00
2019-02-15T22:58:34.694Z,101525.00
2019-02-15T23:01:13.723Z,101523.00
2019-02-15T23:03:41.909Z,101519.00
2019-02-15T23:06:10.109Z,101516.00
2019-02-15T23:08:38.258Z,101512.00
2019-02-15T23:11:06.864Z,101513.00
2019-02-15T23:13:35.356Z,101509.00
2019-02-15T23:16:03.559Z,101512.00
2019-02-15T23:18:32.070Z,101511.00
2019-02-15T23:21:01.881Z,101512.00
2019-02-15T23:23:30.469Z,101509.00
2019-02-15T23:25:58.983Z,101509.00
2019-02-15T23:28:27.474Z,101510.00
2019-02-15T23:30:55.795Z,101510.00
2019-02-15T23:33:24.218Z,101514.00
2019-02-15T23:35:52.372Z,101511.00
2019-02-15T23:38:20.567Z,101499.00
2019-02-15T23:40:49.085Z,101514.00
2019-02-15T23:43:17.459Z,101498.00
2019-02-15T23:45:45.641Z,101499.00
2019-02-15T23:48:14.098Z,101501.00
2019-02-15T23:50:42.224Z,101492.00
2019-02-15T23:53:10.426Z,101494.00
2019-02-15T23:55:38.701Z,101493.00
2019-02-15T23:58:06.989Z,101496.00
